createdAt,value
2022-09-05T00:02:49.148Z,3.77
2022-09-05T00:05:39.875Z,3.13
2022-09-05T00:08:33.263Z,2.80
2022-09-05T00:11:42.462Z,3.03
2022-09-05T00:14:12.763Z,2.97
2022-09-05T00:16:59.448Z,2.73
2022-09-05T00:24:18.813Z,3.10
2022-09-05T00:24:26.449Z,2.90
2022-09-05T00:25:50.868Z,2.70
2022-09-05T00:28:31.333Z,2.90
2022-09-05T00:31:54.634Z,2.77
2022-09-05T00:34:13.984Z,2.67
2022-09-05T00:36:46.609Z,3.20
2022-09-05T00:39:19.595Z,3.43
2022-09-05T00:41:50.611Z,3.07
2022-09-05T00:44:23.478Z,2.90
2022-09-05T00:47:02.406Z,3.07
2022-09-05T00:49:38.326Z,3.03
2022-09-05T00:52:11.677Z,2.97
2022-09-05T00:54:51.666Z,3.23
2022-09-05T00:57:39.924Z,3.23
2022-09-05T01:00:18.092Z,3.03
2022-09-05T01:03:09.719Z,3.40
2022-09-05T01:05:49.328Z,2.70
2022-09-05T01:08:32.214Z,2.93
2022-09-05T01:11:09.319Z,2.70
2022-09-05T01:13:46.572Z,3.33
2022-09-05T01:16:24.400Z,3.50
2022-09-05T01:19:06.629Z,3.33
2022-09-05T01:21:50.565Z,3.53
2022-09-05T01:25:07.552Z,3.40
2022-09-05T01:29:13.212Z,3.60
2022-09-05T01:30:42.041Z,4.00
2022-09-05T01:33:20.411Z,3.10
2022-09-05T01:36:23.867Z,3.50
2022-09-05T01:40:11.607Z,3.30
2022-09-05T01:41:58.512Z,3.37
2022-09-05T01:44:49.271Z,3.60
2022-09-05T01:47:32.161Z,4.13
2022-09-05T01:50:10.769Z,4.00
2022-09-05T01:53:07.754Z,3.57
2022-09-05T01:56:05.078Z,3.40
2022-09-05T01:58:52.885Z,3.47
2022-09-05T02:01:32.671Z,3.37
2022-09-05T02:04:44.134Z,3.50
2022-09-05T02:07:30.909Z,3.90
2022-09-05T02:10:36.492Z,4.10
2022-09-05T02:13:17.669Z,4.17
2022-09-05T02:15:59.868Z,3.77
2022-09-05T02:18:45.073Z,4.30
2022-09-05T02:21:23.423Z,4.23
2022-09-05T02:24:02.621Z,3.90
2022-09-05T02:26:37.204Z,3.93
2022-09-05T02:29:28.444Z,3.40
2022-09-05T02:32:02.989Z,4.03
2022-09-05T02:34:40.885Z,3.43
2022-09-05T02:37:15.397Z,4.10
2022-09-05T02:45:10.274Z,3.90
2022-09-05T02:45:12.206Z,4.27
2022-09-05T02:45:45.678Z,4.53
2022-09-05T02:48:22.879Z,4.20
2022-09-05T02:55:58.787Z,3.97
2022-09-05T02:57:37.802Z,3.77
2022-09-05T02:57:40.794Z,4.13
2022-09-05T03:00:13.720Z,3.50
2022-09-05T03:03:04.749Z,3.67
2022-09-05T03:05:37.447Z,4.10
2022-09-05T03:08:29.034Z,3.80
2022-09-05T03:11:35.405Z,5.00
2022-09-05T03:14:41.582Z,4.50
2022-09-05T03:18:19.864Z,3.93
2022-09-05T03:21:30.696Z,4.00
2022-09-05T03:24:28.127Z,3.90
2022-09-05T03:27:32.483Z,4.13
2022-09-05T03:30:08.455Z,3.40
2022-09-05T03:33:05.001Z,3.70
2022-09-05T03:36:06.269Z,3.70
2022-09-05T03:39:13.118Z,3.70
2022-09-05T03:42:15.078Z,3.33
2022-09-05T03:45:01.236Z,4.23
2022-09-05T03:48:02.239Z,4.20
2022-09-05T03:57:07.415Z,4.00
2022-09-05T03:57:26.941Z,3.90
2022-09-05T03:57:41.699Z,4.53
2022-09-05T04:00:20.901Z,5.07
2022-09-05T04:08:08.564Z,4.50
2022-09-05T04:08:15.900Z,4.77
2022-09-05T04:09:04.544Z,5.13
2022-09-05T04:11:37.720Z,5.40
2022-09-05T04:14:11.029Z,5.33
2022-09-05T04:16:51.187Z,4.43
2022-09-05T04:19:27.453Z,5.23
2022-09-05T04:22:06.474Z,6.60
2022-09-05T04:24:44.031Z,6.30
2022-09-05T04:27:32.604Z,5.40
2022-09-05T04:30:06.564Z,5.60
2022-09-05T04:33:01.839Z,4.80
2022-09-05T04:35:39.138Z,5.80
2022-09-05T04:38:12.868Z,5.30
2022-09-05T04:40:43.717Z,5.63
2022-09-05T04:43:20.145Z,5.57
2022-09-05T04:45:53.418Z,5.80
2022-09-05T04:48:26.885Z,5.40
2022-09-05T04:51:12.890Z,5.80
2022-09-05T04:54:01.073Z,6.30
2022-09-05T04:56:33.725Z,5.73
2022-09-05T05:05:23.661Z,5.80
2022-09-05T05:06:10.845Z,5.27
2022-09-05T05:06:11.039Z,6.50
2022-09-05T05:07:51.018Z,5.20
2022-09-05T05:14:17.607Z,5.47
2022-09-05T05:18:03.636Z,5.20
2022-09-05T05:18:10.382Z,5.53
2022-09-05T05:19:21.361Z,5.73
2022-09-05T05:21:53.582Z,4.80
2022-09-05T05:24:24.943Z,6.13
2022-09-05T05:26:59.785Z,5.20
2022-09-05T05:29:38.448Z,5.40
2022-09-05T05:32:07.960Z,5.23
2022-09-05T05:34:44.124Z,4.77
2022-09-05T05:37:19.503Z,5.23
2022-09-05T05:39:52.556Z,4.90
2022-09-05T05:42:24.005Z,5.57
2022-09-05T05:44:54.723Z,5.20
2022-09-05T05:47:31.488Z,5.50
2022-09-05T05:50:05.593Z,5.60
2022-09-05T05:52:58.071Z,5.83
2022-09-05T05:55:53.504Z,5.73
2022-09-05T05:58:37.813Z,5.60
2022-09-05T06:01:49.897Z,4.60
2022-09-05T06:04:53.446Z,5.40
2022-09-05T06:07:33.336Z,4.87
2022-09-05T06:14:51.475Z,5.20
2022-09-05T06:14:58.710Z,5.13
2022-09-05T06:17:11.503Z,4.97
2022-09-05T06:20:56.679Z,4.70
2022-09-05T06:23:40.340Z,4.87
2022-09-05T06:26:40.928Z,4.67
2022-09-05T06:29:18.323Z,4.73
2022-09-05T06:32:05.011Z,4.93
2022-09-05T06:35:00.194Z,4.73
2022-09-05T06:37:39.425Z,4.93
2022-09-05T06:40:18.505Z,5.10
2022-09-05T06:43:05.145Z,3.97
2022-09-05T06:45:44.805Z,5.10
2022-09-05T06:48:36.575Z,5.20
2022-09-05T06:51:44.935Z,4.70
2022-09-05T06:54:35.507Z,4.47
2022-09-05T06:57:30.766Z,5.03
2022-09-05T07:00:21.984Z,4.90
2022-09-05T07:03:11.760Z,4.20
2022-09-05T07:05:45.068Z,4.57
2022-09-05T07:08:36.113Z,4.20
2022-09-05T07:11:15.561Z,4.50
2022-09-05T07:13:55.806Z,3.80
2022-09-05T07:16:38.255Z,4.97
2022-09-05T07:19:18.019Z,4.50
2022-09-05T07:21:56.050Z,3.83
2022-09-05T07:24:54.159Z,5.33
2022-09-05T07:27:30.209Z,5.30
2022-09-05T07:30:01.688Z,5.07
2022-09-05T07:32:32.592Z,4.77
2022-09-05T07:35:03.771Z,4.30
2022-09-05T07:37:37.857Z,4.23
2022-09-05T07:40:25.257Z,4.47
2022-09-05T07:43:09.773Z,4.03
2022-09-05T07:45:55.445Z,4.30
2022-09-05T07:48:34.665Z,4.37
2022-09-05T07:56:46.313Z,4.63
2022-09-05T07:57:00.665Z,5.37
2022-09-05T07:57:20.781Z,4.07
2022-09-05T07:59:37.694Z,4.37
2022-09-05T08:02:10.561Z,4.70
2022-09-05T08:04:40.898Z,4.43
2022-09-05T08:07:47.588Z,4.43
2022-09-05T08:10:08.465Z,3.90
2022-09-05T08:13:22.864Z,3.60
2022-09-05T08:15:49.439Z,4.27
2022-09-05T08:18:30.667Z,3.67
2022-09-05T08:21:05.181Z,3.60
2022-09-05T08:23:52.847Z,3.78
2022-09-05T08:26:35.610Z,3.85
2022-09-05T08:29:11.218Z,3.47
2022-09-05T08:31:43.826Z,4.20
2022-09-05T08:34:18.633Z,3.10
2022-09-05T08:37:01.484Z,3.65
2022-09-05T08:39:32.387Z,2.80
2022-09-05T08:42:10.654Z,3.35
2022-09-05T08:46:43.162Z,3.70
2022-09-05T08:47:45.584Z,3.67
2022-09-05T08:50:26.775Z,2.88
2022-09-05T08:53:18.691Z,2.92
2022-09-05T08:56:02.537Z,3.45
2022-09-05T08:58:47.181Z,3.28
2022-09-05T09:01:22.807Z,3.10
2022-09-05T09:04:06.131Z,2.78
2022-09-05T09:07:36.718Z,2.80
2022-09-05T09:09:52.057Z,3.28
2022-09-05T09:12:50.237Z,3.45
2022-09-05T09:15:24.824Z,2.78
2022-09-05T09:17:54.061Z,3.15
2022-09-05T09:20:36.570Z,4.15
2022-09-05T09:23:28.880Z,2.67
2022-09-05T09:26:11.469Z,2.90
2022-09-05T09:28:48.185Z,4.07
2022-09-05T09:31:32.593Z,3.78
2022-09-05T09:34:23.046Z,4.35
2022-09-05T09:37:15.892Z,3.20
2022-09-05T09:40:15.516Z,3.80
2022-09-05T09:42:51.604Z,3.58
2022-09-05T09:45:33.535Z,3.13
2022-09-05T09:48:48.870Z,3.28
2022-09-05T09:51:37.632Z,4.25
2022-09-05T09:54:25.767Z,3.70
2022-09-05T09:57:24.112Z,6.50
2022-09-05T10:00:15.732Z,3.97
2022-09-05T10:05:11.862Z,4.40
2022-09-05T10:10:45.060Z,4.03
2022-09-05T10:10:46.165Z,3.97
2022-09-05T10:12:49.795Z,4.72
2022-09-05T10:15:31.495Z,4.80
2022-09-05T10:18:25.293Z,6.15
2022-09-05T10:21:31.428Z,5.43
2022-09-05T10:24:31.767Z,4.97
2022-09-05T10:27:33.587Z,4.30
2022-09-05T10:30:12.464Z,3.95
2022-09-05T10:35:07.718Z,4.45
2022-09-05T10:35:45.484Z,4.22
2022-09-05T10:38:20.225Z,3.50
2022-09-05T10:41:20.974Z,4.75
2022-09-05T10:43:50.709Z,4.28
2022-09-05T10:46:50.204Z,5.47
2022-09-05T10:49:24.786Z,5.18
2022-09-05T10:52:05.415Z,4.28
2022-09-05T10:55:15.124Z,5.13
2022-09-05T10:57:57.401Z,5.47
2022-09-05T11:02:22.085Z,4.70
2022-09-05T11:03:46.673Z,4.90
2022-09-05T11:06:20.953Z,4.88
2022-09-05T11:09:03.113Z,4.85
2022-09-05T11:11:41.363Z,4.28
2022-09-05T11:14:29.585Z,3.88
2022-09-05T11:17:10.143Z,3.60
2022-09-05T11:19:42.795Z,4.93
2022-09-05T11:22:23.512Z,5.13
2022-09-05T11:24:56.748Z,5.47
2022-09-05T11:27:32.454Z,5.35
2022-09-05T11:30:05.565Z,5.32
2022-09-05T11:36:33.722Z,4.63
2022-09-05T11:39:52.868Z,4.50
2022-09-05T11:39:57.726Z,5.07
2022-09-05T11:42:21.605Z,4.50
2022-09-05T11:45:07.399Z,5.43
2022-09-05T11:48:13.568Z,5.40
2022-09-05T11:51:28.300Z,3.30
2022-09-05T11:54:35.299Z,3.53
2022-09-05T11:57:33.286Z,2.88
2022-09-05T12:00:32.896Z,3.10
2022-09-05T12:03:56.495Z,2.95
2022-09-05T12:06:47.798Z,2.30
2022-09-05T12:09:33.212Z,2.33
2022-09-05T12:12:32.812Z,2.53
2022-09-05T12:15:16.944Z,3.90
2022-09-05T12:18:00.575Z,5.07
2022-09-05T12:20:43.282Z,4.38
2022-09-05T12:23:53.763Z,3.28
2022-09-05T12:27:41.873Z,3.63
2022-09-05T12:29:33.892Z,2.42
2022-09-05T12:32:30.991Z,2.40
2022-09-05T12:36:12.451Z,3.03
2022-09-05T12:40:55.752Z,5.00
2022-09-05T12:41:34.469Z,3.45
2022-09-05T12:44:20.916Z,2.85
2022-09-05T12:46:26.161Z,2.55
2022-09-05T12:49:06.720Z,3.13
2022-09-05T12:51:45.448Z,2.72
2022-09-05T12:54:33.157Z,2.00
2022-09-05T13:01:08.097Z,2.40
2022-09-05T13:03:03.321Z,2.00
2022-09-05T13:03:15.402Z,2.00
2022-09-05T13:05:52.714Z,1.85
2022-09-05T13:08:24.206Z,2.10
2022-09-05T13:14:49.602Z,2.05
2022-09-05T13:14:56.430Z,2.00
2022-09-05T13:16:42.179Z,1.80
2022-09-05T13:19:28.310Z,1.83
2022-09-05T13:22:01.194Z,2.20
2022-09-05T13:24:34.143Z,1.73
2022-09-05T13:27:08.629Z,2.45
2022-09-05T13:31:01.656Z,2.42
2022-09-05T13:37:58.215Z,2.00
2022-09-05T13:38:11.853Z,2.13
2022-09-05T13:38:48.935Z,2.00
2022-09-05T13:41:28.371Z,1.95
2022-09-05T13:44:10.315Z,2.10
2022-09-05T13:46:58.590Z,2.00
2022-09-05T13:49:32.262Z,2.17
2022-09-05T13:52:19.731Z,1.45
2022-09-05T13:54:53.746Z,1.95
2022-09-05T13:57:34.752Z,1.52
2022-09-05T14:00:32.167Z,2.80
2022-09-05T14:03:38.286Z,2.05
2022-09-05T14:06:41.210Z,1.92
2022-09-05T14:09:36.740Z,2.13
2022-09-05T14:12:15.743Z,2.40
2022-09-05T14:17:56.413Z,2.85
2022-09-05T14:20:49.475Z,2.17
2022-09-05T14:23:19.751Z,2.88
2022-09-05T14:25:52.969Z,2.38
2022-09-05T14:28:27.922Z,2.10
2022-09-05T14:32:41.178Z,2.60
2022-09-05T14:37:52.922Z,2.80
2022-09-05T14:37:55.739Z,2.60
2022-09-05T14:40:30.855Z,2.03
2022-09-05T14:43:37.530Z,2.33
2022-09-05T14:46:21.069Z,2.75
2022-09-05T14:49:10.807Z,2.53
2022-09-05T14:51:46.669Z,2.70
2022-09-05T14:58:16.212Z,2.90
2022-09-05T15:02:50.052Z,2.22
2022-09-05T15:03:03.662Z,2.03
2022-09-05T15:05:41.147Z,1.30
2022-09-05T15:09:21.400Z,2.17
2022-09-05T15:12:20.230Z,2.13
2022-09-05T15:13:58.167Z,1.85
2022-09-05T15:16:26.789Z,2.05
2022-09-05T15:18:56.315Z,2.10
2022-09-05T15:21:33.520Z,2.20
2022-09-05T15:24:13.445Z,2.20
2022-09-05T15:26:51.202Z,1.83
2022-09-05T15:29:24.703Z,2.00
2022-09-05T15:31:58.992Z,2.17
2022-09-05T15:34:39.625Z,2.20
2022-09-05T15:37:24.131Z,2.40
2022-09-05T15:40:02.971Z,2.22
2022-09-05T15:42:33.482Z,2.00
2022-09-05T15:45:10.146Z,2.10
2022-09-05T15:47:40.067Z,1.95
2022-09-05T15:50:21.898Z,2.05
2022-09-05T15:52:55.595Z,2.17
2022-09-05T15:55:25.143Z,1.70
2022-09-05T15:57:56.527Z,2.28
2022-09-05T16:00:51.320Z,2.30
2022-09-05T16:04:19.919Z,2.38
2022-09-05T16:10:29.838Z,1.50
2022-09-05T16:10:49.438Z,1.70
2022-09-05T16:12:31.955Z,2.15
2022-09-05T16:15:46.601Z,2.13
2022-09-05T16:23:27.978Z,2.15
2022-09-05T16:23:32.504Z,2.30
2022-09-05T16:23:42.825Z,2.88
2022-09-05T16:26:24.826Z,2.15
2022-09-05T16:28:58.523Z,2.30
2022-09-05T16:31:35.435Z,2.25
2022-09-05T16:34:11.682Z,2.13
2022-09-05T16:37:00.855Z,2.08
2022-09-05T16:39:42.740Z,1.80
2022-09-05T16:42:16.823Z,2.05
2022-09-05T16:44:50.565Z,1.88
2022-09-05T16:47:25.441Z,2.53
2022-09-05T16:50:02.560Z,2.28
2022-09-05T16:52:38.219Z,2.83
2022-09-05T16:55:29.342Z,2.42
2022-09-05T16:58:02.471Z,1.80
2022-09-05T17:00:52.372Z,2.40
2022-09-05T17:03:28.913Z,2.50
2022-09-05T17:06:06.115Z,2.30
2022-09-05T17:08:36.758Z,2.55
2022-09-05T17:11:29.290Z,2.20
2022-09-05T17:14:07.083Z,2.10
2022-09-05T17:16:38.053Z,2.13
2022-09-05T17:19:16.282Z,2.10
2022-09-05T17:25:38.473Z,1.90
2022-09-05T17:29:16.083Z,2.40
2022-09-05T17:29:45.742Z,2.42
2022-09-05T17:33:49.564Z,2.42
2022-09-05T17:36:40.974Z,2.47
2022-09-05T17:39:35.968Z,2.40
2022-09-05T17:42:28.344Z,2.67
2022-09-05T17:45:10.344Z,2.33
2022-09-05T17:47:48.258Z,2.63
2022-09-05T17:50:43.763Z,2.85
2022-09-05T17:53:26.673Z,2.55
2022-09-05T17:56:33.938Z,2.75
2022-09-05T17:59:06.669Z,2.60
2022-09-05T18:01:36.375Z,3.00
2022-09-05T18:04:18.116Z,3.20
2022-09-05T18:06:59.713Z,4.13
2022-09-05T18:10:11.876Z,3.28
2022-09-05T18:13:13.487Z,2.80
2022-09-05T18:16:12.584Z,2.90
2022-09-05T18:19:32.371Z,3.63
2022-09-05T18:21:51.593Z,3.28
2022-09-05T18:24:32.767Z,3.33
2022-09-05T18:30:08.117Z,3.67
2022-09-05T18:32:45.479Z,3.30
2022-09-05T18:35:36.944Z,3.38
2022-09-05T18:38:50.954Z,3.78
2022-09-05T18:41:19.386Z,3.80
2022-09-05T18:44:13.579Z,4.07
2022-09-05T18:46:47.455Z,4.57
2022-09-05T18:50:22.346Z,5.53
2022-09-05T18:52:16.998Z,5.38
2022-09-05T18:56:09.736Z,4.63
2022-09-05T18:57:47.887Z,4.32
2022-09-05T19:00:24.634Z,4.22
2022-09-05T19:03:06.790Z,4.03
2022-09-05T19:05:41.760Z,4.22
2022-09-05T19:08:32.020Z,3.83
2022-09-05T19:11:01.910Z,4.65
2022-09-05T19:13:50.328Z,4.18
2022-09-05T19:16:43.570Z,4.93
2022-09-05T19:19:18.340Z,5.10
2022-09-05T19:21:56.191Z,5.07
2022-09-05T19:24:45.594Z,4.60
2022-09-05T19:28:35.031Z,4.18
2022-09-05T19:36:50.879Z,5.75
2022-09-05T19:36:55.345Z,4.50
2022-09-05T19:37:09.041Z,4.57
2022-09-05T19:38:53.447Z,4.00
2022-09-05T19:47:25.412Z,4.32
2022-09-05T19:47:38.165Z,5.25
2022-09-05T19:47:46.997Z,4.88
2022-09-05T19:50:11.455Z,5.78
2022-09-05T19:52:40.452Z,4.72
2022-09-05T19:55:21.809Z,5.30
2022-09-05T19:58:19.563Z,4.93
2022-09-05T20:00:42.131Z,4.88
2022-09-05T20:03:21.099Z,4.45
2022-09-05T20:05:50.739Z,4.72
2022-09-05T20:08:31.482Z,3.90
2022-09-05T20:11:04.088Z,4.75
2022-09-05T20:13:33.806Z,4.10
2022-09-05T20:16:02.130Z,4.80
2022-09-05T20:18:37.295Z,5.18
2022-09-05T20:21:09.924Z,5.15
2022-09-05T20:23:39.813Z,4.65
2022-09-05T20:26:10.906Z,4.13
2022-09-05T20:28:42.092Z,4.50
2022-09-05T20:31:16.014Z,4.82
2022-09-05T20:33:51.678Z,4.20
2022-09-05T20:43:08.621Z,4.38
2022-09-05T20:43:16.113Z,4.70
2022-09-05T20:43:30.175Z,4.57
2022-09-05T20:44:53.525Z,4.55
2022-09-05T20:54:08.737Z,4.40
2022-09-05T20:54:14.949Z,3.97
2022-09-05T20:54:32.249Z,4.82
2022-09-05T20:56:10.503Z,5.25
2022-09-05T20:58:39.837Z,4.15
2022-09-05T21:01:20.017Z,4.32
2022-09-05T21:03:58.574Z,4.28
2022-09-05T21:06:33.837Z,4.20
2022-09-05T21:09:24.531Z,4.45
2022-09-05T21:11:54.129Z,4.40
2022-09-05T21:14:23.980Z,3.95
2022-09-05T21:17:00.688Z,4.22
2022-09-05T21:19:31.421Z,4.07
2022-09-05T21:22:03.434Z,3.40
2022-09-05T21:24:31.386Z,3.72
2022-09-05T21:27:16.385Z,3.80
2022-09-05T21:29:44.289Z,4.28
2022-09-05T21:32:16.304Z,3.53
2022-09-05T21:34:48.639Z,3.90
2022-09-05T21:37:18.589Z,3.80
2022-09-05T21:39:58.711Z,3.60
2022-09-05T21:46:39.998Z,3.10
2022-09-05T21:47:47.726Z,3.22
2022-09-05T21:48:08.232Z,3.20
2022-09-05T21:50:40.786Z,3.50
2022-09-05T21:55:51.745Z,3.50
2022-09-05T21:59:16.681Z,3.00
2022-09-05T21:59:25.801Z,3.70
2022-09-05T22:01:51.346Z,2.80
2022-09-05T22:04:22.105Z,3.05
2022-09-05T22:06:50.686Z,3.03
2022-09-05T22:09:19.605Z,3.15
2022-09-05T22:11:50.393Z,4.00
2022-09-05T22:14:18.653Z,2.40
2022-09-05T22:16:47.326Z,2.80
2022-09-05T22:19:17.777Z,3.45
2022-09-05T22:21:46.947Z,3.30
2022-09-05T22:24:14.736Z,3.55
2022-09-05T22:27:12.335Z,3.30
2022-09-05T22:29:35.356Z,2.78
2022-09-05T22:32:05.215Z,3.85
2022-09-05T22:34:33.239Z,3.55
2022-09-05T22:37:02.443Z,6.07
2022-09-05T22:39:36.762Z,3.30
2022-09-05T22:42:09.998Z,3.13
2022-09-05T22:44:39.386Z,4.38
2022-09-05T22:47:07.606Z,3.83
2022-09-05T22:49:36.351Z,3.30
2022-09-05T22:52:06.213Z,2.78
2022-09-05T22:54:34.035Z,3.38
2022-09-05T22:57:01.770Z,3.25
2022-09-05T22:59:29.820Z,3.97
2022-09-05T23:01:57.844Z,3.67
2022-09-05T23:04:25.798Z,3.50
2022-09-05T23:06:53.641Z,3.53
2022-09-05T23:09:22.802Z,3.50
2022-09-05T23:11:50.466Z,3.58
2022-09-05T23:14:18.221Z,3.30
2022-09-05T23:16:45.917Z,3.20
2022-09-05T23:19:13.615Z,3.17
2022-09-05T23:21:41.357Z,3.23
2022-09-05T23:24:08.996Z,3.10
2022-09-05T23:26:38.022Z,3.23
2022-09-05T23:29:05.737Z,3.50
2022-09-05T23:31:33.438Z,2.80
2022-09-05T23:34:01.135Z,3.45
2022-09-05T23:36:28.879Z,3.27
2022-09-05T23:38:56.658Z,3.87
2022-09-05T23:41:24.397Z,3.43
2022-09-05T23:43:53.655Z,3.00
2022-09-05T23:46:21.420Z,3.23
2022-09-05T23:48:49.115Z,2.73
2022-09-05T23:51:16.814Z,3.10
2022-09-05T23:53:45.972Z,2.67
2022-09-05T23:56:13.623Z,2.90
2022-09-05T23:58:41.391Z,2.90
